sensor_id;sensor_type;location;lat;lon;timestamp;P1;durP1;ratioP1;P2;durP2;ratioP2
22543;SDS011;11438;52.044;8.716;2023-04-24T00:01:27;0.20;;;0.10;;
22543;SDS011;11438;52.044;8.716;2023-04-24T00:03:54;1.45;;;0.30;;
22543;SDS011;11438;52.044;8.716;2023-04-24T00:06:20;1.38;;;0.20;;
22543;SDS011;11438;52.044;8.716;2023-04-24T00:08:48;0.10;;;0.10;;
22543;SDS011;11438;52.044;8.716;2023-04-24T00:11:14;0.30;;;0.13;;
22543;SDS011;11438;52.044;8.716;2023-04-24T00:13:39;0.20;;;0.20;;
22543;SDS011;11438;52.044;8.716;2023-04-24T00:16:05;0.20;;;0.20;;
22543;SDS011;11438;52.044;8.716;2023-04-24T00:18:30;0.35;;;0.13;;
22543;SDS011;11438;52.044;8.716;2023-04-24T00:20:56;0.15;;;0.15;;
22543;SDS011;11438;52.044;8.716;2023-04-24T00:23:22;0.25;;;0.25;;
22543;SDS011;11438;52.044;8.716;2023-04-24T00:25:47;0.10;;;0.10;;
22543;SDS011;11438;52.044;8.716;2023-04-24T00:28:13;0.30;;;0.30;;
22543;SDS011;11438;52.044;8.716;2023-04-24T00:30:38;0.30;;;0.10;;
22543;SDS011;11438;52.044;8.716;2023-04-24T00:33:04;0.57;;;0.20;;
22543;SDS011;11438;52.044;8.716;2023-04-24T00:35:30;0.20;;;0.20;;
22543;SDS011;11438;52.044;8.716;2023-04-24T00:37:55;0.25;;;0.20;;
22543;SDS011;11438;52.044;8.716;2023-04-24T00:40:21;0.75;;;0.30;;
22543;SDS011;11438;52.044;8.716;2023-04-24T00:42:47;0.20;;;0.20;;
22543;SDS011;11438;52.044;8.716;2023-04-24T00:45:13;0.38;;;0.20;;
22543;SDS011;11438;52.044;8.716;2023-04-24T00:47:39;0.20;;;0.20;;
22543;SDS011;11438;52.044;8.716;2023-04-24T00:50:06;1.02;;;0.20;;
22543;SDS011;11438;52.044;8.716;2023-04-24T00:52:32;0.73;;;0.30;;
22543;SDS011;11438;52.044;8.716;2023-04-24T00:54:58;0.60;;;0.30;;
22543;SDS011;11438;52.044;8.716;2023-04-24T00:57:24;0.38;;;0.32;;
22543;SDS011;11438;52.044;8.716;2023-04-24T00:59:50;0.70;;;0.40;;
22543;SDS011;11438;52.044;8.716;2023-04-24T01:02:17;0.85;;;0.30;;
22543;SDS011;11438;52.044;8.716;2023-04-24T01:04:42;1.85;;;0.30;;
22543;SDS011;11438;52.044;8.716;2023-04-24T01:07:09;0.88;;;0.40;;
22543;SDS011;11438;52.044;8.716;2023-04-24T01:09:42;0.30;;;0.30;;
22543;SDS011;11438;52.044;8.716;2023-04-24T01:12:12;0.30;;;0.30;;
22543;SDS011;11438;52.044;8.716;2023-04-24T01:14:37;0.70;;;0.43;;
22543;SDS011;11438;52.044;8.716;2023-04-24T01:17:03;0.98;;;0.38;;
22543;SDS011;11438;52.044;8.716;2023-04-24T01:19:29;0.40;;;0.40;;
22543;SDS011;11438;52.044;8.716;2023-04-24T01:21:54;0.70;;;0.45;;
22543;SDS011;11438;52.044;8.716;2023-04-24T01:24:26;0.60;;;0.38;;
22543;SDS011;11438;52.044;8.716;2023-04-24T01:26:52;0.90;;;0.40;;
22543;SDS011;11438;52.044;8.716;2023-04-24T01:29:18;0.70;;;0.40;;
22543;SDS011;11438;52.044;8.716;2023-04-24T01:31:44;1.00;;;0.50;;
22543;SDS011;11438;52.044;8.716;2023-04-24T01:34:10;0.47;;;0.40;;
22543;SDS011;11438;52.044;8.716;2023-04-24T01:36:35;1.25;;;0.40;;
22543;SDS011;11438;52.044;8.716;2023-04-24T01:39:01;1.30;;;0.50;;
22543;SDS011;11438;52.044;8.716;2023-04-24T01:41:28;0.30;;;0.30;;
22543;SDS011;11438;52.044;8.716;2023-04-24T01:43:55;0.68;;;0.40;;
22543;SDS011;11438;52.044;8.716;2023-04-24T01:46:22;0.50;;;0.40;;
22543;SDS011;11438;52.044;8.716;2023-04-24T01:48:48;0.65;;;0.40;;
22543;SDS011;11438;52.044;8.716;2023-04-24T01:51:14;0.30;;;0.30;;
22543;SDS011;11438;52.044;8.716;2023-04-24T01:53:40;0.30;;;0.30;;
22543;SDS011;11438;52.044;8.716;2023-04-24T01:56:05;0.30;;;0.30;;
22543;SDS011;11438;52.044;8.716;2023-04-24T01:58:31;0.30;;;0.25;;
22543;SDS011;11438;52.044;8.716;2023-04-24T02:00:57;0.65;;;0.30;;
22543;SDS011;11438;52.044;8.716;2023-04-24T02:03:24;0.30;;;0.30;;
22543;SDS011;11438;52.044;8.716;2023-04-24T02:05:50;1.40;;;0.28;;
22543;SDS011;11438;52.044;8.716;2023-04-24T02:08:16;0.68;;;0.40;;
22543;SDS011;11438;52.044;8.716;2023-04-24T02:10:41;0.47;;;0.40;;
22543;SDS011;11438;52.044;8.716;2023-04-24T02:13:07;0.68;;;0.40;;
22543;SDS011;11438;52.044;8.716;2023-04-24T02:15:32;0.68;;;0.50;;
22543;SDS011;11438;52.044;8.716;2023-04-24T02:17:58;0.40;;;0.40;;
22543;SDS011;11438;52.044;8.716;2023-04-24T02:20:24;0.60;;;0.40;;
22543;SDS011;11438;52.044;8.716;2023-04-24T02:22:49;0.30;;;0.30;;
22543;SDS011;11438;52.044;8.716;2023-04-24T02:25:15;2.38;;;0.38;;
22543;SDS011;11438;52.044;8.716;2023-04-24T02:27:40;0.75;;;0.47;;
22543;SDS011;11438;52.044;8.716;2023-04-24T02:30:06;0.90;;;0.40;;
22543;SDS011;11438;52.044;8.716;2023-04-24T02:32:32;1.02;;;0.60;;
22543;SDS011;11438;52.044;8.716;2023-04-24T02:34:58;1.85;;;0.65;;
22543;SDS011;11438;52.044;8.716;2023-04-24T02:37:24;1.25;;;0.70;;
22543;SDS011;11438;52.044;8.716;2023-04-24T02:39:49;1.42;;;0.63;;
22543;SDS011;11438;52.044;8.716;2023-04-24T02:42:15;1.10;;;0.60;;
22543;SDS011;11438;52.044;8.716;2023-04-24T02:44:40;1.40;;;0.47;;
22543;SDS011;11438;52.044;8.716;2023-04-24T02:47:06;0.63;;;0.40;;
22543;SDS011;11438;52.044;8.716;2023-04-24T02:49:32;0.60;;;0.30;;
22543;SDS011;11438;52.044;8.716;2023-04-24T02:51:58;0.60;;;0.40;;
22543;SDS011;11438;52.044;8.716;2023-04-24T02:54:23;0.77;;;0.40;;
22543;SDS011;11438;52.044;8.716;2023-04-24T02:56:49;0.88;;;0.40;;
22543;SDS011;11438;52.044;8.716;2023-04-24T02:59:14;0.60;;;0.40;;
22543;SDS011;11438;52.044;8.716;2023-04-24T03:01:40;0.60;;;0.40;;
22543;SDS011;11438;52.044;8.716;2023-04-24T03:04:05;0.30;;;0.30;;
22543;SDS011;11438;52.044;8.716;2023-04-24T03:06:31;3.60;;;0.45;;
22543;SDS011;11438;52.044;8.716;2023-04-24T03:08:57;0.50;;;0.30;;
22543;SDS011;11438;52.044;8.716;2023-04-24T03:11:23;0.45;;;0.30;;
22543;SDS011;11438;52.044;8.716;2023-04-24T03:13:48;0.60;;;0.30;;
22543;SDS011;11438;52.044;8.716;2023-04-24T03:16:14;0.82;;;0.40;;
22543;SDS011;11438;52.044;8.716;2023-04-24T03:18:39;0.85;;;0.20;;
22543;SDS011;11438;52.044;8.716;2023-04-24T03:21:05;0.73;;;0.30;;
22543;SDS011;11438;52.044;8.716;2023-04-24T03:23:30;0.43;;;0.30;;
22543;SDS011;11438;52.044;8.716;2023-04-24T03:25:56;0.60;;;0.40;;
22543;SDS011;11438;52.044;8.716;2023-04-24T03:28:21;0.93;;;0.30;;
22543;SDS011;11438;52.044;8.716;2023-04-24T03:30:47;1.33;;;0.40;;
22543;SDS011;11438;52.044;8.716;2023-04-24T03:33:12;0.20;;;0.20;;
22543;SDS011;11438;52.044;8.716;2023-04-24T03:35:38;0.73;;;0.50;;
22543;SDS011;11438;52.044;8.716;2023-04-24T03:38:03;0.30;;;0.30;;
22543;SDS011;11438;52.044;8.716;2023-04-24T03:40:29;0.50;;;0.40;;
22543;SDS011;11438;52.044;8.716;2023-04-24T03:42:55;0.70;;;0.40;;
22543;SDS011;11438;52.044;8.716;2023-04-24T03:45:20;1.33;;;0.30;;
22543;SDS011;11438;52.044;8.716;2023-04-24T03:47:46;1.35;;;0.47;;
22543;SDS011;11438;52.044;8.716;2023-04-24T03:50:12;0.93;;;0.50;;
22543;SDS011;11438;52.044;8.716;2023-04-24T03:52:37;0.85;;;0.40;;
22543;SDS011;11438;52.044;8.716;2023-04-24T03:55:03;0.40;;;0.40;;
22543;SDS011;11438;52.044;8.716;2023-04-24T03:57:28;0.73;;;0.40;;
22543;SDS011;11438;52.044;8.716;2023-04-24T03:59:54;0.43;;;0.40;;
22543;SDS011;11438;52.044;8.716;2023-04-24T04:02:20;0.60;;;0.50;;
22543;SDS011;11438;52.044;8.716;2023-04-24T04:04:45;0.60;;;0.50;;
22543;SDS011;11438;52.044;8.716;2023-04-24T04:07:11;1.15;;;0.50;;
22543;SDS011;11438;52.044;8.716;2023-04-24T04:09:37;0.43;;;0.40;;
22543;SDS011;11438;52.044;8.716;2023-04-24T04:12:03;0.65;;;0.38;;
22543;SDS011;11438;52.044;8.716;2023-04-24T04:14:29;1.30;;;0.40;;
22543;SDS011;11438;52.044;8.716;2023-04-24T04:16:54;0.57;;;0.57;;
22543;SDS011;11438;52.044;8.716;2023-04-24T04:19:20;1.08;;;0.50;;
22543;SDS011;11438;52.044;8.716;2023-04-24T04:21:45;1.10;;;0.60;;
22543;SDS011;11438;52.044;8.716;2023-04-24T04:24:15;0.80;;;0.60;;
22543;SDS011;11438;52.044;8.716;2023-04-24T04:26:41;0.50;;;0.50;;
22543;SDS011;11438;52.044;8.716;2023-04-24T04:29:11;1.15;;;0.70;;
22543;SDS011;11438;52.044;8.716;2023-04-24T04:31:36;0.80;;;0.70;;
22543;SDS011;11438;52.044;8.716;2023-04-24T04:34:02;1.08;;;0.75;;
22543;SDS011;11438;52.044;8.716;2023-04-24T04:36:28;1.02;;;0.68;;
22543;SDS011;11438;52.044;8.716;2023-04-24T04:38:54;0.95;;;0.75;;
22543;SDS011;11438;52.044;8.716;2023-04-24T04:41:20;0.63;;;0.60;;
22543;SDS011;11438;52.044;8.716;2023-04-24T04:43:45;0.70;;;0.60;;
22543;SDS011;11438;52.044;8.716;2023-04-24T04:46:11;0.68;;;0.63;;
22543;SDS011;11438;52.044;8.716;2023-04-24T04:48:37;2.47;;;0.80;;
22543;SDS011;11438;52.044;8.716;2023-04-24T04:51:03;1.77;;;0.73;;
22543;SDS011;11438;52.044;8.716;2023-04-24T04:53:28;1.30;;;0.73;;
22543;SDS011;11438;52.044;8.716;2023-04-24T04:55:54;1.10;;;1.00;;
22543;SDS011;11438;52.044;8.716;2023-04-24T04:58:19;2.00;;;1.00;;
22543;SDS011;11438;52.044;8.716;2023-04-24T05:00:45;1.77;;;1.40;;
22543;SDS011;11438;52.044;8.716;2023-04-24T05:03:11;2.05;;;1.33;;
22543;SDS011;11438;52.044;8.716;2023-04-24T05:05:36;1.92;;;1.45;;
22543;SDS011;11438;52.044;8.716;2023-04-24T05:08:05;3.22;;;1.60;;
22543;SDS011;11438;52.044;8.716;2023-04-24T05:10:34;2.85;;;1.40;;
22543;SDS011;11438;52.044;8.716;2023-04-24T05:13:01;1.65;;;1.20;;
22543;SDS011;11438;52.044;8.716;2023-04-24T05:15:27;3.42;;;2.20;;
22543;SDS011;11438;52.044;8.716;2023-04-24T05:17:53;4.05;;;2.78;;
22543;SDS011;11438;52.044;8.716;2023-04-24T05:20:18;3.53;;;2.90;;
22543;SDS011;11438;52.044;8.716;2023-04-24T05:22:44;6.15;;;3.67;;
22543;SDS011;11438;52.044;8.716;2023-04-24T05:25:09;8.25;;;4.35;;
22543;SDS011;11438;52.044;8.716;2023-04-24T05:27:35;6.70;;;4.20;;
22543;SDS011;11438;52.044;8.716;2023-04-24T05:30:00;6.07;;;4.63;;
22543;SDS011;11438;52.044;8.716;2023-04-24T05:32:26;4.57;;;4.13;;
22543;SDS011;11438;52.044;8.716;2023-04-24T05:34:52;7.38;;;4.50;;
22543;SDS011;11438;52.044;8.716;2023-04-24T05:37:17;6.30;;;4.68;;
22543;SDS011;11438;52.044;8.716;2023-04-24T05:39:43;5.28;;;4.18;;
22543;SDS011;11438;52.044;8.716;2023-04-24T05:42:08;6.90;;;3.90;;
22543;SDS011;11438;52.044;8.716;2023-04-24T05:44:34;5.80;;;4.10;;
22543;SDS011;11438;52.044;8.716;2023-04-24T05:47:00;4.53;;;3.75;;
22543;SDS011;11438;52.044;8.716;2023-04-24T05:49:25;6.25;;;3.97;;
22543;SDS011;11438;52.044;8.716;2023-04-24T05:51:51;5.70;;;4.32;;
22543;SDS011;11438;52.044;8.716;2023-04-24T05:54:16;8.15;;;5.05;;
22543;SDS011;11438;52.044;8.716;2023-04-24T05:56:42;8.43;;;5.85;;
22543;SDS011;11438;52.044;8.716;2023-04-24T05:59:07;9.27;;;6.00;;
22543;SDS011;11438;52.044;8.716;2023-04-24T06:01:33;8.45;;;6.55;;
22543;SDS011;11438;52.044;8.716;2023-04-24T06:03:59;7.45;;;5.63;;
22543;SDS011;11438;52.044;8.716;2023-04-24T06:06:25;9.38;;;5.95;;
22543;SDS011;11438;52.044;8.716;2023-04-24T06:08:52;9.05;;;5.95;;
22543;SDS011;11438;52.044;8.716;2023-04-24T06:11:17;11.32;;;6.32;;
22543;SDS011;11438;52.044;8.716;2023-04-24T06:13:43;8.85;;;5.75;;
22543;SDS011;11438;52.044;8.716;2023-04-24T06:16:08;9.10;;;6.47;;
22543;SDS011;11438;52.044;8.716;2023-04-24T06:18:34;8.05;;;6.13;;
22543;SDS011;11438;52.044;8.716;2023-04-24T06:21:00;10.38;;;6.28;;
22543;SDS011;11438;52.044;8.716;2023-04-24T06:23:25;9.15;;;6.07;;
22543;SDS011;11438;52.044;8.716;2023-04-24T06:25:51;7.88;;;6.07;;
22543;SDS011;11438;52.044;8.716;2023-04-24T06:28:16;9.65;;;6.00;;
22543;SDS011;11438;52.044;8.716;2023-04-24T06:30:42;8.18;;;5.85;;
22543;SDS011;11438;52.044;8.716;2023-04-24T06:33:08;7.97;;;6.00;;
22543;SDS011;11438;52.044;8.716;2023-04-24T06:35:34;7.80;;;6.32;;
22543;SDS011;11438;52.044;8.716;2023-04-24T06:37:59;8.52;;;6.07;;
22543;SDS011;11438;52.044;8.716;2023-04-24T06:40:25;9.40;;;6.40;;
22543;SDS011;11438;52.044;8.716;2023-04-24T06:42:51;7.68;;;5.88;;
22543;SDS011;11438;52.044;8.716;2023-04-24T06:45:16;10.13;;;6.38;;
22543;SDS011;11438;52.044;8.716;2023-04-24T06:47:42;8.73;;;6.70;;
22543;SDS011;11438;52.044;8.716;2023-04-24T06:50:07;9.48;;;5.93;;
22543;SDS011;11438;52.044;8.716;2023-04-24T06:52:33;8.32;;;6.22;;
22543;SDS011;11438;52.044;8.716;2023-04-24T06:55:02;7.72;;;5.90;;
22543;SDS011;11438;52.044;8.716;2023-04-24T06:57:28;7.88;;;6.40;;
22543;SDS011;11438;52.044;8.716;2023-04-24T06:59:54;7.55;;;6.15;;
22543;SDS011;11438;52.044;8.716;2023-04-24T07:02:20;9.80;;;6.55;;
22543;SDS011;11438;52.044;8.716;2023-04-24T07:04:45;8.23;;;5.60;;
22543;SDS011;11438;52.044;8.716;2023-04-24T07:07:12;8.25;;;5.93;;
22543;SDS011;11438;52.044;8.716;2023-04-24T07:09:39;7.93;;;6.10;;
22543;SDS011;11438;52.044;8.716;2023-04-24T07:12:07;8.95;;;5.95;;
22543;SDS011;11438;52.044;8.716;2023-04-24T07:14:33;8.20;;;6.40;;
22543;SDS011;11438;52.044;8.716;2023-04-24T07:16:59;9.10;;;6.68;;
22543;SDS011;11438;52.044;8.716;2023-04-24T07:19:25;7.90;;;5.85;;
22543;SDS011;11438;52.044;8.716;2023-04-24T07:21:50;8.55;;;6.10;;
22543;SDS011;11438;52.044;8.716;2023-04-24T07:24:16;7.40;;;5.35;;
22543;SDS011;11438;52.044;8.716;2023-04-24T07:26:41;7.15;;;5.35;;
22543;SDS011;11438;52.044;8.716;2023-04-24T07:29:07;8.40;;;5.47;;
22543;SDS011;11438;52.044;8.716;2023-04-24T07:31:33;9.68;;;6.13;;
22543;SDS011;11438;52.044;8.716;2023-04-24T07:33:58;8.13;;;6.10;;
22543;SDS011;11438;52.044;8.716;2023-04-24T07:36:24;8.43;;;6.07;;
22543;SDS011;11438;52.044;8.716;2023-04-24T07:38:51;7.32;;;5.47;;
22543;SDS011;11438;52.044;8.716;2023-04-24T07:41:17;6.93;;;5.15;;
22543;SDS011;11438;52.044;8.716;2023-04-24T07:43:42;7.70;;;5.15;;
22543;SDS011;11438;52.044;8.716;2023-04-24T07:46:09;7.32;;;5.22;;
22543;SDS011;11438;52.044;8.716;2023-04-24T07:48:35;5.90;;;4.70;;
22543;SDS011;11438;52.044;8.716;2023-04-24T07:51:01;6.03;;;4.82;;
22543;SDS011;11438;52.044;8.716;2023-04-24T07:53:27;7.13;;;4.85;;
22543;SDS011;11438;52.044;8.716;2023-04-24T07:55:53;5.55;;;4.35;;
22543;SDS011;11438;52.044;8.716;2023-04-24T07:58:20;7.50;;;4.85;;
22543;SDS011;11438;52.044;8.716;2023-04-24T08:00:46;6.43;;;4.43;;
22543;SDS011;11438;52.044;8.716;2023-04-24T08:03:12;6.97;;;4.47;;
22543;SDS011;11438;52.044;8.716;2023-04-24T08:05:38;5.53;;;4.55;;
22543;SDS011;11438;52.044;8.716;2023-04-24T08:08:04;5.28;;;4.07;;
22543;SDS011;11438;52.044;8.716;2023-04-24T08:10:29;5.43;;;4.38;;
22543;SDS011;11438;52.044;8.716;2023-04-24T08:12:55;5.40;;;4.00;;
22543;SDS011;11438;52.044;8.716;2023-04-24T08:15:21;6.00;;;3.88;;
22543;SDS011;11438;52.044;8.716;2023-04-24T08:17:46;4.60;;;3.88;;
22543;SDS011;11438;52.044;8.716;2023-04-24T08:20:12;5.70;;;3.97;;
22543;SDS011;11438;52.044;8.716;2023-04-24T08:22:40;4.55;;;3.20;;
22543;SDS011;11438;52.044;8.716;2023-04-24T08:25:07;6.20;;;3.47;;
22543;SDS011;11438;52.044;8.716;2023-04-24T08:27:33;4.95;;;3.85;;
22543;SDS011;11438;52.044;8.716;2023-04-24T08:29:59;3.88;;;3.47;;
22543;SDS011;11438;52.044;8.716;2023-04-24T08:32:25;5.40;;;2.95;;
22543;SDS011;11438;52.044;8.716;2023-04-24T08:34:53;2.83;;;2.50;;
22543;SDS011;11438;52.044;8.716;2023-04-24T08:37:21;4.72;;;2.30;;
22543;SDS011;11438;52.044;8.716;2023-04-24T08:39:47;3.38;;;2.40;;
22543;SDS011;11438;52.044;8.716;2023-04-24T08:42:12;2.92;;;2.10;;
22543;SDS011;11438;52.044;8.716;2023-04-24T08:44:39;2.95;;;2.30;;
22543;SDS011;11438;52.044;8.716;2023-04-24T08:47:05;2.65;;;1.95;;
22543;SDS011;11438;52.044;8.716;2023-04-24T08:49:32;3.28;;;2.13;;
22543;SDS011;11438;52.044;8.716;2023-04-24T08:51:58;3.88;;;1.83;;
22543;SDS011;11438;52.044;8.716;2023-04-24T08:54:25;2.60;;;1.90;;
22543;SDS011;11438;52.044;8.716;2023-04-24T08:56:50;1.77;;;1.67;;
22543;SDS011;11438;52.044;8.716;2023-04-24T08:59:22;1.90;;;1.58;;
22543;SDS011;11438;52.044;8.716;2023-04-24T09:01:48;2.00;;;1.77;;
22543;SDS011;11438;52.044;8.716;2023-04-24T09:04:16;2.42;;;1.73;;
22543;SDS011;11438;52.044;8.716;2023-04-24T09:06:44;2.00;;;1.70;;
22543;SDS011;11438;52.044;8.716;2023-04-24T09:09:10;1.80;;;1.48;;
22543;SDS011;11438;52.044;8.716;2023-04-24T09:11:36;1.98;;;1.77;;
22543;SDS011;11438;52.044;8.716;2023-04-24T09:14:02;2.13;;;1.50;;
22543;SDS011;11438;52.044;8.716;2023-04-24T09:16:28;2.40;;;1.48;;
22543;SDS011;11438;52.044;8.716;2023-04-24T09:18:54;3.13;;;1.77;;
22543;SDS011;11438;52.044;8.716;2023-04-24T09:21:21;2.95;;;1.73;;
22543;SDS011;11438;52.044;8.716;2023-04-24T09:23:57;3.20;;;1.73;;
22543;SDS011;11438;52.044;8.716;2023-04-24T09:26:24;1.92;;;1.63;;
22543;SDS011;11438;52.044;8.716;2023-04-24T09:28:50;1.63;;;1.50;;
22543;SDS011;11438;52.044;8.716;2023-04-24T09:31:17;1.50;;;1.35;;
22543;SDS011;11438;52.044;8.716;2023-04-24T09:34:02;1.98;;;1.42;;
22543;SDS011;11438;52.044;8.716;2023-04-24T09:36:34;2.38;;;1.48;;
22543;SDS011;11438;52.044;8.716;2023-04-24T09:39:04;1.88;;;1.40;;
22543;SDS011;11438;52.044;8.716;2023-04-24T09:41:33;1.40;;;1.30;;
22543;SDS011;11438;52.044;8.716;2023-04-24T09:44:10;1.75;;;1.17;;
22543;SDS011;11438;52.044;8.716;2023-04-24T09:46:45;1.33;;;1.10;;
22543;SDS011;11438;52.044;8.716;2023-04-24T09:49:15;1.52;;;1.05;;
22543;SDS011;11438;52.044;8.716;2023-04-24T09:51:45;1.10;;;1.00;;
22543;SDS011;11438;52.044;8.716;2023-04-24T09:54:13;1.52;;;1.02;;
22543;SDS011;11438;52.044;8.716;2023-04-24T09:56:50;1.90;;;1.08;;
22543;SDS011;11438;52.044;8.716;2023-04-24T09:59:17;2.42;;;1.10;;
22543;SDS011;11438;52.044;8.716;2023-04-24T10:01:43;1.23;;;1.13;;
22543;SDS011;11438;52.044;8.716;2023-04-24T10:06:45;1.17;;;0.98;;
22543;SDS011;11438;52.044;8.716;2023-04-24T10:09:12;0.95;;;0.90;;
22543;SDS011;11438;52.044;8.716;2023-04-24T10:11:41;0.85;;;0.82;;
22543;SDS011;11438;52.044;8.716;2023-04-24T10:14:09;1.33;;;0.88;;
22543;SDS011;11438;52.044;8.716;2023-04-24T10:16:37;0.70;;;0.60;;
22543;SDS011;11438;52.044;8.716;2023-04-24T10:19:05;0.70;;;0.70;;
22543;SDS011;11438;52.044;8.716;2023-04-24T10:21:31;1.67;;;0.60;;
22543;SDS011;11438;52.044;8.716;2023-04-24T10:23:57;0.80;;;0.70;;
22543;SDS011;11438;52.044;8.716;2023-04-24T10:26:24;1.13;;;0.60;;
22543;SDS011;11438;52.044;8.716;2023-04-24T10:28:52;0.70;;;0.70;;
22543;SDS011;11438;52.044;8.716;2023-04-24T10:31:21;0.60;;;0.50;;
22543;SDS011;11438;52.044;8.716;2023-04-24T10:33:47;0.90;;;0.57;;
22543;SDS011;11438;52.044;8.716;2023-04-24T10:36:15;0.65;;;0.40;;
22543;SDS011;11438;52.044;8.716;2023-04-24T10:38:41;0.55;;;0.40;;
22543;SDS011;11438;52.044;8.716;2023-04-24T10:41:11;0.50;;;0.30;;
22543;SDS011;11438;52.044;8.716;2023-04-24T10:43:41;0.32;;;0.30;;
22543;SDS011;11438;52.044;8.716;2023-04-24T10:46:07;0.68;;;0.40;;
22543;SDS011;11438;52.044;8.716;2023-04-24T10:48:35;0.98;;;0.70;;
22543;SDS011;11438;52.044;8.716;2023-04-24T10:51:01;0.50;;;0.50;;
22543;SDS011;11438;52.044;8.716;2023-04-24T10:53:28;1.13;;;0.77;;
22543;SDS011;11438;52.044;8.716;2023-04-24T10:56:04;0.98;;;0.70;;
22543;SDS011;11438;52.044;8.716;2023-04-24T10:58:36;0.70;;;0.60;;
22543;SDS011;11438;52.044;8.716;2023-04-24T11:01:03;0.50;;;0.50;;
22543;SDS011;11438;52.044;8.716;2023-04-24T11:03:29;0.60;;;0.60;;
22543;SDS011;11438;52.044;8.716;2023-04-24T11:06:00;1.00;;;0.82;;
22543;SDS011;11438;52.044;8.716;2023-04-24T11:08:42;1.23;;;1.00;;
22543;SDS011;11438;52.044;8.716;2023-04-24T11:11:10;1.10;;;1.00;;
22543;SDS011;11438;52.044;8.716;2023-04-24T11:21:43;1.10;;;0.95;;
22543;SDS011;11438;52.044;8.716;2023-04-24T11:26:58;1.10;;;0.60;;
22543;SDS011;11438;52.044;8.716;2023-04-24T11:29:41;0.93;;;0.73;;
22543;SDS011;11438;52.044;8.716;2023-04-24T11:32:16;0.45;;;0.40;;
22543;SDS011;11438;52.044;8.716;2023-04-24T11:34:50;1.40;;;0.60;;
22543;SDS011;11438;52.044;8.716;2023-04-24T11:37:18;0.70;;;0.50;;
22543;SDS011;11438;52.044;8.716;2023-04-24T11:39:43;1.35;;;0.60;;
22543;SDS011;11438;52.044;8.716;2023-04-24T11:42:09;1.13;;;0.70;;
22543;SDS011;11438;52.044;8.716;2023-04-24T11:44:35;0.77;;;0.68;;
22543;SDS011;11438;52.044;8.716;2023-04-24T11:47:06;0.98;;;0.90;;
22543;SDS011;11438;52.044;8.716;2023-04-24T11:49:33;1.10;;;0.90;;
22543;SDS011;11438;52.044;8.716;2023-04-24T11:52:01;1.05;;;0.95;;
22543;SDS011;11438;52.044;8.716;2023-04-24T11:54:27;1.88;;;1.10;;
22543;SDS011;11438;52.044;8.716;2023-04-24T11:56:52;1.05;;;0.80;;
22543;SDS011;11438;52.044;8.716;2023-04-24T11:59:18;0.75;;;0.60;;
22543;SDS011;11438;52.044;8.716;2023-04-24T12:01:46;0.90;;;0.65;;
22543;SDS011;11438;52.044;8.716;2023-04-24T12:04:13;0.85;;;0.63;;
22543;SDS011;11438;52.044;8.716;2023-04-24T12:06:58;0.52;;;0.43;;
22543;SDS011;11438;52.044;8.716;2023-04-24T12:09:25;0.70;;;0.50;;
22543;SDS011;11438;52.044;8.716;2023-04-24T12:11:54;0.40;;;0.40;;
22543;SDS011;11438;52.044;8.716;2023-04-24T12:14:23;0.65;;;0.35;;
22543;SDS011;11438;52.044;8.716;2023-04-24T12:16:49;0.43;;;0.40;;
22543;SDS011;11438;52.044;8.716;2023-04-24T12:19:20;0.40;;;0.40;;
22543;SDS011;11438;52.044;8.716;2023-04-24T12:21:58;0.65;;;0.45;;
22543;SDS011;11438;52.044;8.716;2023-04-24T12:24:24;0.70;;;0.57;;
22543;SDS011;11438;52.044;8.716;2023-04-24T12:26:50;1.20;;;0.65;;
22543;SDS011;11438;52.044;8.716;2023-04-24T12:29:22;0.90;;;0.50;;
22543;SDS011;11438;52.044;8.716;2023-04-24T12:31:48;0.80;;;0.60;;
22543;SDS011;11438;52.044;8.716;2023-04-24T12:34:23;1.10;;;0.52;;
22543;SDS011;11438;52.044;8.716;2023-04-24T12:36:50;1.92;;;0.80;;
22543;SDS011;11438;52.044;8.716;2023-04-24T12:39:17;0.70;;;0.68;;
22543;SDS011;11438;52.044;8.716;2023-04-24T12:41:56;2.00;;;1.00;;
22543;SDS011;11438;52.044;8.716;2023-04-24T12:44:28;1.50;;;0.70;;
22543;SDS011;11438;52.044;8.716;2023-04-24T12:46:59;1.50;;;0.90;;
22543;SDS011;11438;52.044;8.716;2023-04-24T12:49:25;1.85;;;1.00;;
22543;SDS011;11438;52.044;8.716;2023-04-24T12:51:51;1.58;;;1.10;;
22543;SDS011;11438;52.044;8.716;2023-04-24T12:54:16;1.75;;;1.20;;
22543;SDS011;11438;52.044;8.716;2023-04-24T12:56:42;3.60;;;1.20;;
22543;SDS011;11438;52.044;8.716;2023-04-24T12:59:07;4.22;;;1.55;;
22543;SDS011;11438;52.044;8.716;2023-04-24T13:01:32;3.78;;;1.48;;
22543;SDS011;11438;52.044;8.716;2023-04-24T13:03:58;3.17;;;1.30;;
22543;SDS011;11438;52.044;8.716;2023-04-24T13:06:24;5.43;;;1.42;;
22543;SDS011;11438;52.044;8.716;2023-04-24T13:08:49;2.60;;;1.55;;
22543;SDS011;11438;52.044;8.716;2023-04-24T13:11:16;2.50;;;1.67;;
22543;SDS011;11438;52.044;8.716;2023-04-24T13:13:42;3.80;;;1.70;;
22543;SDS011;11438;52.044;8.716;2023-04-24T13:16:08;3.53;;;1.90;;
22543;SDS011;11438;52.044;8.716;2023-04-24T13:18:34;2.95;;;1.55;;
22543;SDS011;11438;52.044;8.716;2023-04-24T13:20:59;2.50;;;1.70;;
22543;SDS011;11438;52.044;8.716;2023-04-24T13:23:25;2.75;;;1.75;;
22543;SDS011;11438;52.044;8.716;2023-04-24T13:25:51;2.95;;;1.52;;
22543;SDS011;11438;52.044;8.716;2023-04-24T13:28:16;2.95;;;1.50;;
22543;SDS011;11438;52.044;8.716;2023-04-24T13:30:43;3.70;;;1.55;;
22543;SDS011;11438;52.044;8.716;2023-04-24T13:33:08;2.72;;;1.40;;
22543;SDS011;11438;52.044;8.716;2023-04-24T13:35:34;2.28;;;1.55;;
22543;SDS011;11438;52.044;8.716;2023-04-24T13:37:59;1.50;;;1.25;;
22543;SDS011;11438;52.044;8.716;2023-04-24T13:40:26;1.77;;;1.17;;
22543;SDS011;11438;52.044;8.716;2023-04-24T13:42:52;3.63;;;1.48;;
22543;SDS011;11438;52.044;8.716;2023-04-24T13:45:17;2.08;;;1.30;;
22543;SDS011;11438;52.044;8.716;2023-04-24T13:47:43;1.83;;;1.17;;
22543;SDS011;11438;52.044;8.716;2023-04-24T13:50:08;2.63;;;1.20;;
22543;SDS011;11438;52.044;8.716;2023-04-24T13:52:34;3.92;;;1.27;;
22543;SDS011;11438;52.044;8.716;2023-04-24T13:55:00;2.70;;;1.30;;
22543;SDS011;11438;52.044;8.716;2023-04-24T13:57:26;3.20;;;1.42;;
22543;SDS011;11438;52.044;8.716;2023-04-24T13:59:53;3.60;;;1.70;;
22543;SDS011;11438;52.044;8.716;2023-04-24T14:02:20;2.95;;;1.23;;
22543;SDS011;11438;52.044;8.716;2023-04-24T14:04:46;4.95;;;1.42;;
22543;SDS011;11438;52.044;8.716;2023-04-24T14:07:13;5.30;;;1.90;;
22543;SDS011;11438;52.044;8.716;2023-04-24T14:09:38;4.80;;;1.92;;
22543;SDS011;11438;52.044;8.716;2023-04-24T14:12:04;5.18;;;2.30;;
22543;SDS011;11438;52.044;8.716;2023-04-24T14:14:30;4.53;;;2.20;;
22543;SDS011;11438;52.044;8.716;2023-04-24T14:16:56;4.20;;;2.40;;
22543;SDS011;11438;52.044;8.716;2023-04-24T14:19:22;5.78;;;2.60;;
22543;SDS011;11438;52.044;8.716;2023-04-24T14:21:47;6.72;;;2.60;;
22543;SDS011;11438;52.044;8.716;2023-04-24T14:24:13;5.28;;;2.63;;
22543;SDS011;11438;52.044;8.716;2023-04-24T14:26:38;5.57;;;2.80;;
22543;SDS011;11438;52.044;8.716;2023-04-24T14:29:04;4.45;;;2.42;;
22543;SDS011;11438;52.044;8.716;2023-04-24T14:31:29;5.85;;;2.58;;
22543;SDS011;11438;52.044;8.716;2023-04-24T14:33:55;6.65;;;2.88;;
22543;SDS011;11438;52.044;8.716;2023-04-24T14:36:20;5.15;;;2.42;;
22543;SDS011;11438;52.044;8.716;2023-04-24T14:38:46;5.47;;;2.53;;
22543;SDS011;11438;52.044;8.716;2023-04-24T14:41:11;5.47;;;2.67;;
22543;SDS011;11438;52.044;8.716;2023-04-24T14:43:37;4.60;;;2.60;;
22543;SDS011;11438;52.044;8.716;2023-04-24T14:46:03;9.07;;;3.00;;
22543;SDS011;11438;52.044;8.716;2023-04-24T14:48:28;8.85;;;2.92;;
22543;SDS011;11438;52.044;8.716;2023-04-24T14:50:54;6.53;;;3.15;;
22543;SDS011;11438;52.044;8.716;2023-04-24T14:53:19;5.88;;;2.90;;
22543;SDS011;11438;52.044;8.716;2023-04-24T14:55:45;10.57;;;3.13;;
22543;SDS011;11438;52.044;8.716;2023-04-24T14:58:11;6.10;;;2.63;;